Raywood, Texas
Current Conditions -  °F | °C
As of 11:15 AM on Friday 19 Dec 2014 (Local Time) from KBMT Reporting Station
Moderate Rain Moderate Rain  
Wind Chill: 57°   Ceiling: 3800
Heat Index: 57°   Visibility: 5mi
Dew Point: 57°   Wind: 7mph
Humidity: 98%   Direction: 50°NE
Pressure: 30.09"   Gusts: NA
Location:  30.04°N, 94.67°W
Report Text: KBMT 191715Z AUTO 05006KT 5SM RA SCT005 OVC038 14/14 A3009 RMK AO2 T01400137
Loading
Personal Weather Stations






























Interactive Weather Map New forecast layout! Learn more

10-Day Weather Forecast

Advertisements
Track Severe Weather on mobile